sensor_id;sensor_type;location;lat;lon;timestamp;P1;durP1;ratioP1;P2;durP2;ratioP2
75261;SDS011;63859;51.064;4.580;2023-02-27T00:02:22;4.10;;;2.10;;
75261;SDS011;63859;51.064;4.580;2023-02-27T00:04:47;6.40;;;2.10;;
75261;SDS011;63859;51.064;4.580;2023-02-27T00:07:14;6.10;;;2.20;;
75261;SDS011;63859;51.064;4.580;2023-02-27T00:09:40;7.13;;;2.17;;
75261;SDS011;63859;51.064;4.580;2023-02-27T00:12:06;4.17;;;1.87;;
75261;SDS011;63859;51.064;4.580;2023-02-27T00:14:32;6.10;;;2.40;;
75261;SDS011;63859;51.064;4.580;2023-02-27T00:16:58;9.00;;;2.67;;
75261;SDS011;63859;51.064;4.580;2023-02-27T00:19:24;6.77;;;2.20;;
75261;SDS011;63859;51.064;4.580;2023-02-27T00:21:50;9.97;;;1.93;;
75261;SDS011;63859;51.064;4.580;2023-02-27T00:24:15;7.23;;;2.50;;
75261;SDS011;63859;51.064;4.580;2023-02-27T00:26:41;6.43;;;1.97;;
75261;SDS011;63859;51.064;4.580;2023-02-27T00:29:06;9.50;;;2.70;;
75261;SDS011;63859;51.064;4.580;2023-02-27T00:31:32;11.97;;;2.80;;
75261;SDS011;63859;51.064;4.580;2023-02-27T00:33:58;7.93;;;2.83;;
75261;SDS011;63859;51.064;4.580;2023-02-27T00:36:24;8.67;;;2.13;;
75261;SDS011;63859;51.064;4.580;2023-02-27T00:38:50;5.10;;;1.90;;
75261;SDS011;63859;51.064;4.580;2023-02-27T00:41:16;4.43;;;1.87;;
75261;SDS011;63859;51.064;4.580;2023-02-27T00:43:41;4.37;;;2.03;;
75261;SDS011;63859;51.064;4.580;2023-02-27T00:46:07;7.27;;;2.00;;
75261;SDS011;63859;51.064;4.580;2023-02-27T00:48:34;7.53;;;2.30;;
75261;SDS011;63859;51.064;4.580;2023-02-27T00:51:00;4.07;;;2.13;;
75261;SDS011;63859;51.064;4.580;2023-02-27T00:53:25;8.47;;;2.00;;
75261;SDS011;63859;51.064;4.580;2023-02-27T00:55:51;9.53;;;2.30;;
75261;SDS011;63859;51.064;4.580;2023-02-27T00:58:17;6.43;;;2.37;;
75261;SDS011;63859;51.064;4.580;2023-02-27T01:00:42;3.43;;;2.23;;
75261;SDS011;63859;51.064;4.580;2023-02-27T01:03:08;4.30;;;2.13;;
75261;SDS011;63859;51.064;4.580;2023-02-27T01:05:34;5.27;;;1.90;;
75261;SDS011;63859;51.064;4.580;2023-02-27T01:08:00;6.40;;;2.40;;
75261;SDS011;63859;51.064;4.580;2023-02-27T01:10:25;5.20;;;2.00;;
75261;SDS011;63859;51.064;4.580;2023-02-27T01:12:51;9.10;;;2.23;;
75261;SDS011;63859;51.064;4.580;2023-02-27T01:15:16;3.40;;;1.97;;
75261;SDS011;63859;51.064;4.580;2023-02-27T01:17:42;7.87;;;2.20;;
75261;SDS011;63859;51.064;4.580;2023-02-27T01:20:09;4.03;;;2.30;;
75261;SDS011;63859;51.064;4.580;2023-02-27T01:22:36;7.43;;;2.17;;
75261;SDS011;63859;51.064;4.580;2023-02-27T01:25:02;4.53;;;2.00;;
75261;SDS011;63859;51.064;4.580;2023-02-27T01:27:29;8.97;;;2.60;;
75261;SDS011;63859;51.064;4.580;2023-02-27T01:29:54;7.00;;;2.00;;
75261;SDS011;63859;51.064;4.580;2023-02-27T01:32:20;5.83;;;2.00;;
75261;SDS011;63859;51.064;4.580;2023-02-27T01:34:46;4.63;;;2.60;;
75261;SDS011;63859;51.064;4.580;2023-02-27T01:37:11;4.23;;;1.90;;
75261;SDS011;63859;51.064;4.580;2023-02-27T01:39:37;6.10;;;2.33;;
75261;SDS011;63859;51.064;4.580;2023-02-27T01:42:03;6.00;;;2.00;;
75261;SDS011;63859;51.064;4.580;2023-02-27T01:44:30;4.93;;;2.10;;
75261;SDS011;63859;51.064;4.580;2023-02-27T01:47:16;6.43;;;2.10;;
75261;SDS011;63859;51.064;4.580;2023-02-27T01:49:42;7.27;;;1.90;;
75261;SDS011;63859;51.064;4.580;2023-02-27T01:52:08;6.33;;;2.20;;
75261;SDS011;63859;51.064;4.580;2023-02-27T01:54:37;6.43;;;1.93;;
75261;SDS011;63859;51.064;4.580;2023-02-27T01:57:04;5.87;;;2.40;;
75261;SDS011;63859;51.064;4.580;2023-02-27T01:59:34;5.53;;;2.30;;
75261;SDS011;63859;51.064;4.580;2023-02-27T02:02:03;4.00;;;2.00;;
75261;SDS011;63859;51.064;4.580;2023-02-27T02:04:34;4.97;;;2.20;;
75261;SDS011;63859;51.064;4.580;2023-02-27T02:07:04;5.57;;;2.00;;
75261;SDS011;63859;51.064;4.580;2023-02-27T02:09:36;6.80;;;2.37;;
75261;SDS011;63859;51.064;4.580;2023-02-27T02:12:06;5.97;;;2.10;;
75261;SDS011;63859;51.064;4.580;2023-02-27T02:14:33;5.73;;;2.37;;
75261;SDS011;63859;51.064;4.580;2023-02-27T02:27:39;10.00;;;2.50;;
75261;SDS011;63859;51.064;4.580;2023-02-27T02:31:02;7.27;;;2.93;;
75261;SDS011;63859;51.064;4.580;2023-02-27T02:36:25;7.73;;;2.20;;
75261;SDS011;63859;51.064;4.580;2023-02-27T02:42:03;5.97;;;1.90;;
75261;SDS011;63859;51.064;4.580;2023-02-27T02:57:52;4.37;;;2.13;;
75261;SDS011;63859;51.064;4.580;2023-02-27T03:00:40;7.00;;;2.20;;
75261;SDS011;63859;51.064;4.580;2023-02-27T03:03:13;6.47;;;2.20;;
75261;SDS011;63859;51.064;4.580;2023-02-27T03:05:46;8.07;;;2.30;;
75261;SDS011;63859;51.064;4.580;2023-02-27T03:08:27;3.43;;;2.13;;
75261;SDS011;63859;51.064;4.580;2023-02-27T03:10:57;5.73;;;2.20;;
75261;SDS011;63859;51.064;4.580;2023-02-27T03:13:37;6.67;;;2.10;;
75261;SDS011;63859;51.064;4.580;2023-02-27T03:16:35;3.97;;;2.10;;
75261;SDS011;63859;51.064;4.580;2023-02-27T03:21:47;3.00;;;2.10;;
75261;SDS011;63859;51.064;4.580;2023-02-27T03:24:34;5.57;;;2.20;;
75261;SDS011;63859;51.064;4.580;2023-02-27T03:27:12;8.10;;;2.57;;
75261;SDS011;63859;51.064;4.580;2023-02-27T03:29:41;3.37;;;2.10;;
75261;SDS011;63859;51.064;4.580;2023-02-27T03:32:28;6.53;;;2.50;;
75261;SDS011;63859;51.064;4.580;2023-02-27T03:35:00;7.53;;;2.40;;
75261;SDS011;63859;51.064;4.580;2023-02-27T03:40:51;6.53;;;2.30;;
75261;SDS011;63859;51.064;4.580;2023-02-27T03:43:57;7.63;;;3.10;;
75261;SDS011;63859;51.064;4.580;2023-02-27T03:46:39;5.60;;;2.50;;
75261;SDS011;63859;51.064;4.580;2023-02-27T03:49:05;7.13;;;2.30;;
75261;SDS011;63859;51.064;4.580;2023-02-27T03:51:31;5.90;;;2.40;;
75261;SDS011;63859;51.064;4.580;2023-02-27T03:59:13;8.10;;;2.50;;
75261;SDS011;63859;51.064;4.580;2023-02-27T04:01:40;6.73;;;2.73;;
75261;SDS011;63859;51.064;4.580;2023-02-27T04:04:09;9.47;;;2.60;;
75261;SDS011;63859;51.064;4.580;2023-02-27T04:06:37;5.23;;;2.40;;
75261;SDS011;63859;51.064;4.580;2023-02-27T04:09:28;6.07;;;2.33;;
75261;SDS011;63859;51.064;4.580;2023-02-27T04:17:49;5.00;;;2.40;;
75261;SDS011;63859;51.064;4.580;2023-02-27T04:20:34;5.93;;;2.30;;
75261;SDS011;63859;51.064;4.580;2023-02-27T04:23:05;3.80;;;2.23;;
75261;SDS011;63859;51.064;4.580;2023-02-27T04:28:31;7.33;;;2.30;;
75261;SDS011;63859;51.064;4.580;2023-02-27T04:31:09;5.50;;;2.47;;
75261;SDS011;63859;51.064;4.580;2023-02-27T04:33:41;4.83;;;2.30;;
75261;SDS011;63859;51.064;4.580;2023-02-27T04:38:58;5.07;;;2.10;;
75261;SDS011;63859;51.064;4.580;2023-02-27T04:41:56;4.60;;;2.57;;
75261;SDS011;63859;51.064;4.580;2023-02-27T04:44:29;4.50;;;2.53;;
75261;SDS011;63859;51.064;4.580;2023-02-27T04:46:57;6.83;;;2.13;;
75261;SDS011;63859;51.064;4.580;2023-02-27T04:49:27;8.17;;;2.53;;
75261;SDS011;63859;51.064;4.580;2023-02-27T04:52:11;4.50;;;2.60;;
75261;SDS011;63859;51.064;4.580;2023-02-27T04:57:36;9.20;;;2.97;;
75261;SDS011;63859;51.064;4.580;2023-02-27T05:00:07;9.43;;;2.80;;
75261;SDS011;63859;51.064;4.580;2023-02-27T05:02:37;8.27;;;2.97;;
75261;SDS011;63859;51.064;4.580;2023-02-27T05:05:17;6.57;;;2.57;;
75261;SDS011;63859;51.064;4.580;2023-02-27T05:07:54;5.13;;;2.50;;
75261;SDS011;63859;51.064;4.580;2023-02-27T05:10:27;17.43;;;3.50;;
75261;SDS011;63859;51.064;4.580;2023-02-27T05:13:03;5.70;;;2.70;;
75261;SDS011;63859;51.064;4.580;2023-02-27T05:15:37;7.33;;;2.47;;
75261;SDS011;63859;51.064;4.580;2023-02-27T05:18:11;7.03;;;2.73;;
75261;SDS011;63859;51.064;4.580;2023-02-27T05:26:19;10.23;;;3.50;;
75261;SDS011;63859;51.064;4.580;2023-02-27T05:31:34;5.87;;;2.80;;
75261;SDS011;63859;51.064;4.580;2023-02-27T05:34:24;11.93;;;2.70;;
75261;SDS011;63859;51.064;4.580;2023-02-27T05:39:37;6.27;;;2.83;;
75261;SDS011;63859;51.064;4.580;2023-02-27T05:42:07;8.03;;;2.80;;
75261;SDS011;63859;51.064;4.580;2023-02-27T05:44:38;6.57;;;2.87;;
75261;SDS011;63859;51.064;4.580;2023-02-27T05:47:09;6.47;;;3.40;;
75261;SDS011;63859;51.064;4.580;2023-02-27T05:49:41;6.23;;;2.90;;
75261;SDS011;63859;51.064;4.580;2023-02-27T05:52:11;8.27;;;3.20;;
75261;SDS011;63859;51.064;4.580;2023-02-27T05:57:15;9.50;;;3.17;;
75261;SDS011;63859;51.064;4.580;2023-02-27T05:59:58;5.57;;;2.73;;
75261;SDS011;63859;51.064;4.580;2023-02-27T06:02:30;5.13;;;3.03;;
75261;SDS011;63859;51.064;4.580;2023-02-27T06:04:55;5.53;;;3.40;;
75261;SDS011;63859;51.064;4.580;2023-02-27T06:07:21;8.17;;;3.03;;
75261;SDS011;63859;51.064;4.580;2023-02-27T06:09:47;10.43;;;3.40;;
75261;SDS011;63859;51.064;4.580;2023-02-27T06:12:14;6.50;;;2.90;;
75261;SDS011;63859;51.064;4.580;2023-02-27T06:14:39;7.93;;;3.10;;
75261;SDS011;63859;51.064;4.580;2023-02-27T06:17:05;12.03;;;3.47;;
75261;SDS011;63859;51.064;4.580;2023-02-27T06:19:31;6.53;;;2.80;;
75261;SDS011;63859;51.064;4.580;2023-02-27T06:21:56;9.53;;;3.20;;
75261;SDS011;63859;51.064;4.580;2023-02-27T06:24:22;9.60;;;3.40;;
75261;SDS011;63859;51.064;4.580;2023-02-27T06:26:47;6.47;;;2.83;;
75261;SDS011;63859;51.064;4.580;2023-02-27T06:29:13;13.03;;;3.47;;
75261;SDS011;63859;51.064;4.580;2023-02-27T06:31:38;12.13;;;3.90;;
75261;SDS011;63859;51.064;4.580;2023-02-27T06:34:04;7.47;;;3.50;;
75261;SDS011;63859;51.064;4.580;2023-02-27T06:36:30;9.93;;;3.70;;
75261;SDS011;63859;51.064;4.580;2023-02-27T06:38:55;10.00;;;3.40;;
75261;SDS011;63859;51.064;4.580;2023-02-27T06:41:22;6.97;;;3.40;;
75261;SDS011;63859;51.064;4.580;2023-02-27T06:43:47;7.23;;;3.77;;
75261;SDS011;63859;51.064;4.580;2023-02-27T06:46:13;9.30;;;3.40;;
75261;SDS011;63859;51.064;4.580;2023-02-27T06:48:39;10.57;;;3.67;;
75261;SDS011;63859;51.064;4.580;2023-02-27T06:51:04;8.60;;;3.83;;
75261;SDS011;63859;51.064;4.580;2023-02-27T06:53:31;9.87;;;3.83;;
75261;SDS011;63859;51.064;4.580;2023-02-27T06:55:57;11.17;;;3.57;;
75261;SDS011;63859;51.064;4.580;2023-02-27T06:58:22;7.10;;;3.60;;
75261;SDS011;63859;51.064;4.580;2023-02-27T07:00:49;8.00;;;3.83;;
75261;SDS011;63859;51.064;4.580;2023-02-27T07:03:14;8.43;;;4.10;;
75261;SDS011;63859;51.064;4.580;2023-02-27T07:05:40;8.80;;;4.17;;
75261;SDS011;63859;51.064;4.580;2023-02-27T07:08:06;16.33;;;4.40;;
75261;SDS011;63859;51.064;4.580;2023-02-27T07:10:32;8.50;;;4.60;;
75261;SDS011;63859;51.064;4.580;2023-02-27T07:12:58;6.57;;;4.23;;
75261;SDS011;63859;51.064;4.580;2023-02-27T07:15:23;6.47;;;4.50;;
75261;SDS011;63859;51.064;4.580;2023-02-27T07:17:49;7.23;;;4.23;;
75261;SDS011;63859;51.064;4.580;2023-02-27T07:20:14;9.60;;;4.33;;
75261;SDS011;63859;51.064;4.580;2023-02-27T07:22:40;14.57;;;4.07;;
75261;SDS011;63859;51.064;4.580;2023-02-27T07:25:06;6.20;;;3.50;;
75261;SDS011;63859;51.064;4.580;2023-02-27T07:27:33;11.97;;;4.20;;
75261;SDS011;63859;51.064;4.580;2023-02-27T07:29:58;8.60;;;3.80;;
75261;SDS011;63859;51.064;4.580;2023-02-27T07:32:25;7.20;;;3.90;;
75261;SDS011;63859;51.064;4.580;2023-02-27T07:34:50;6.47;;;3.73;;
75261;SDS011;63859;51.064;4.580;2023-02-27T07:37:16;9.70;;;4.00;;
75261;SDS011;63859;51.064;4.580;2023-02-27T07:39:42;14.83;;;5.03;;
75261;SDS011;63859;51.064;4.580;2023-02-27T07:42:09;14.60;;;4.00;;
75261;SDS011;63859;51.064;4.580;2023-02-27T07:44:34;9.93;;;4.13;;
75261;SDS011;63859;51.064;4.580;2023-02-27T07:47:00;13.13;;;4.60;;
75261;SDS011;63859;51.064;4.580;2023-02-27T07:49:26;36.33;;;5.47;;
75261;SDS011;63859;51.064;4.580;2023-02-27T07:51:51;13.83;;;4.40;;
75261;SDS011;63859;51.064;4.580;2023-02-27T07:54:17;9.30;;;4.20;;
75261;SDS011;63859;51.064;4.580;2023-02-27T07:56:43;7.40;;;3.80;;
75261;SDS011;63859;51.064;4.580;2023-02-27T07:59:08;11.70;;;3.90;;
75261;SDS011;63859;51.064;4.580;2023-02-27T08:01:34;11.33;;;4.00;;
75261;SDS011;63859;51.064;4.580;2023-02-27T08:04:00;11.60;;;4.63;;
75261;SDS011;63859;51.064;4.580;2023-02-27T08:06:25;9.80;;;4.20;;
75261;SDS011;63859;51.064;4.580;2023-02-27T08:08:51;6.40;;;3.77;;
75261;SDS011;63859;51.064;4.580;2023-02-27T08:11:17;11.37;;;4.20;;
75261;SDS011;63859;51.064;4.580;2023-02-27T08:13:43;9.53;;;4.37;;
75261;SDS011;63859;51.064;4.580;2023-02-27T08:16:10;6.93;;;3.90;;
75261;SDS011;63859;51.064;4.580;2023-02-27T08:18:36;8.73;;;4.00;;
75261;SDS011;63859;51.064;4.580;2023-02-27T08:21:02;14.03;;;4.00;;
75261;SDS011;63859;51.064;4.580;2023-02-27T08:23:29;8.07;;;4.00;;
75261;SDS011;63859;51.064;4.580;2023-02-27T08:25:55;7.00;;;4.03;;
75261;SDS011;63859;51.064;4.580;2023-02-27T08:28:22;11.33;;;4.40;;
75261;SDS011;63859;51.064;4.580;2023-02-27T08:30:48;5.27;;;3.47;;
75261;SDS011;63859;51.064;4.580;2023-02-27T08:33:14;13.13;;;4.20;;
75261;SDS011;63859;51.064;4.580;2023-02-27T08:35:39;7.20;;;3.70;;
75261;SDS011;63859;51.064;4.580;2023-02-27T08:38:05;10.77;;;4.10;;
75261;SDS011;63859;51.064;4.580;2023-02-27T08:40:31;10.10;;;3.73;;
75261;SDS011;63859;51.064;4.580;2023-02-27T08:42:56;9.43;;;3.60;;
75261;SDS011;63859;51.064;4.580;2023-02-27T08:45:22;8.17;;;3.77;;
75261;SDS011;63859;51.064;4.580;2023-02-27T08:47:47;12.57;;;4.33;;
75261;SDS011;63859;51.064;4.580;2023-02-27T08:50:13;14.97;;;3.80;;
75261;SDS011;63859;51.064;4.580;2023-02-27T08:52:39;12.30;;;3.97;;
75261;SDS011;63859;51.064;4.580;2023-02-27T08:55:05;7.77;;;3.97;;
75261;SDS011;63859;51.064;4.580;2023-02-27T08:57:31;11.10;;;4.10;;
75261;SDS011;63859;51.064;4.580;2023-02-27T08:59:57;13.13;;;4.10;;
75261;SDS011;63859;51.064;4.580;2023-02-27T09:02:22;10.83;;;4.10;;
75261;SDS011;63859;51.064;4.580;2023-02-27T09:04:50;19.93;;;5.00;;
75261;SDS011;63859;51.064;4.580;2023-02-27T09:07:16;9.27;;;4.13;;
75261;SDS011;63859;51.064;4.580;2023-02-27T09:09:43;8.53;;;3.80;;
75261;SDS011;63859;51.064;4.580;2023-02-27T09:12:09;13.27;;;4.70;;
75261;SDS011;63859;51.064;4.580;2023-02-27T09:14:34;9.07;;;4.30;;
75261;SDS011;63859;51.064;4.580;2023-02-27T09:17:00;10.73;;;4.47;;
75261;SDS011;63859;51.064;4.580;2023-02-27T09:19:26;6.73;;;4.60;;
75261;SDS011;63859;51.064;4.580;2023-02-27T09:21:51;7.77;;;4.43;;
75261;SDS011;63859;51.064;4.580;2023-02-27T09:24:17;10.70;;;4.50;;
75261;SDS011;63859;51.064;4.580;2023-02-27T09:26:43;11.10;;;4.57;;
75261;SDS011;63859;51.064;4.580;2023-02-27T09:29:08;8.90;;;4.83;;
75261;SDS011;63859;51.064;4.580;2023-02-27T09:31:34;8.23;;;4.17;;
75261;SDS011;63859;51.064;4.580;2023-02-27T09:34:00;10.27;;;4.23;;
75261;SDS011;63859;51.064;4.580;2023-02-27T09:36:26;12.70;;;4.37;;
75261;SDS011;63859;51.064;4.580;2023-02-27T09:38:52;10.17;;;4.60;;
75261;SDS011;63859;51.064;4.580;2023-02-27T09:46:53;7.43;;;3.70;;
75261;SDS011;63859;51.064;4.580;2023-02-27T09:49:19;11.07;;;4.20;;
75261;SDS011;63859;51.064;4.580;2023-02-27T09:51:47;11.57;;;3.90;;
75261;SDS011;63859;51.064;4.580;2023-02-27T09:54:16;6.87;;;3.77;;
75261;SDS011;63859;51.064;4.580;2023-02-27T09:59:19;8.23;;;3.00;;
75261;SDS011;63859;51.064;4.580;2023-02-27T10:07:43;11.20;;;3.23;;
75261;SDS011;63859;51.064;4.580;2023-02-27T10:15:51;6.73;;;2.67;;
75261;SDS011;63859;51.064;4.580;2023-02-27T10:18:22;7.10;;;2.70;;
75261;SDS011;63859;51.064;4.580;2023-02-27T10:25:59;14.67;;;2.90;;
75261;SDS011;63859;51.064;4.580;2023-02-27T10:28:27;8.97;;;2.20;;
75261;SDS011;63859;51.064;4.580;2023-02-27T10:30:54;5.90;;;2.70;;
75261;SDS011;63859;51.064;4.580;2023-02-27T10:36:02;7.70;;;1.93;;
75261;SDS011;63859;51.064;4.580;2023-02-27T10:38:37;6.07;;;2.00;;
75261;SDS011;63859;51.064;4.580;2023-02-27T10:41:11;3.97;;;1.87;;
75261;SDS011;63859;51.064;4.580;2023-02-27T10:43:40;6.63;;;2.40;;
75261;SDS011;63859;51.064;4.580;2023-02-27T10:46:11;3.90;;;1.87;;
75261;SDS011;63859;51.064;4.580;2023-02-27T10:48:39;3.00;;;1.97;;
75261;SDS011;63859;51.064;4.580;2023-02-27T10:53:47;8.57;;;2.30;;
75261;SDS011;63859;51.064;4.580;2023-02-27T10:56:14;6.20;;;1.90;;
75261;SDS011;63859;51.064;4.580;2023-02-27T10:59:00;4.73;;;1.97;;
75261;SDS011;63859;51.064;4.580;2023-02-27T11:01:44;4.40;;;1.90;;
75261;SDS011;63859;51.064;4.580;2023-02-27T11:04:12;7.17;;;2.07;;
75261;SDS011;63859;51.064;4.580;2023-02-27T11:06:49;3.80;;;1.70;;
75261;SDS011;63859;51.064;4.580;2023-02-27T11:09:21;4.27;;;2.10;;
75261;SDS011;63859;51.064;4.580;2023-02-27T11:11:49;2.73;;;1.87;;
75261;SDS011;63859;51.064;4.580;2023-02-27T11:14:26;5.33;;;2.10;;
75261;SDS011;63859;51.064;4.580;2023-02-27T11:16:55;2.97;;;2.10;;
75261;SDS011;63859;51.064;4.580;2023-02-27T11:19:33;5.83;;;1.80;;
75261;SDS011;63859;51.064;4.580;2023-02-27T11:22:16;3.47;;;1.80;;
75261;SDS011;63859;51.064;4.580;2023-02-27T11:24:46;6.07;;;2.30;;
75261;SDS011;63859;51.064;4.580;2023-02-27T11:27:16;5.93;;;1.90;;
75261;SDS011;63859;51.064;4.580;2023-02-27T11:30:02;3.13;;;1.63;;
75261;SDS011;63859;51.064;4.580;2023-02-27T11:32:44;14.73;;;2.57;;
75261;SDS011;63859;51.064;4.580;2023-02-27T11:37:50;5.70;;;1.93;;
75261;SDS011;63859;51.064;4.580;2023-02-27T11:40:19;4.27;;;2.50;;
75261;SDS011;63859;51.064;4.580;2023-02-27T11:42:54;6.93;;;2.00;;
75261;SDS011;63859;51.064;4.580;2023-02-27T11:48:20;4.53;;;2.17;;
75261;SDS011;63859;51.064;4.580;2023-02-27T11:53:47;3.80;;;2.20;;
75261;SDS011;63859;51.064;4.580;2023-02-27T11:56:30;5.90;;;2.13;;
75261;SDS011;63859;51.064;4.580;2023-02-27T12:04:11;7.37;;;2.00;;
75261;SDS011;63859;51.064;4.580;2023-02-27T12:10:03;6.07;;;1.73;;
75261;SDS011;63859;51.064;4.580;2023-02-27T12:12:45;2.30;;;1.60;;
75261;SDS011;63859;51.064;4.580;2023-02-27T12:15:41;9.40;;;1.73;;
75261;SDS011;63859;51.064;4.580;2023-02-27T12:18:17;2.47;;;1.40;;
75261;SDS011;63859;51.064;4.580;2023-02-27T12:20:54;5.30;;;1.60;;
75261;SDS011;63859;51.064;4.580;2023-02-27T12:25:54;3.83;;;1.67;;
75261;SDS011;63859;51.064;4.580;2023-02-27T12:34:16;11.07;;;2.33;;
75261;SDS011;63859;51.064;4.580;2023-02-27T12:36:50;3.63;;;1.80;;
75261;SDS011;63859;51.064;4.580;2023-02-27T12:39:18;10.77;;;2.07;;
75261;SDS011;63859;51.064;4.580;2023-02-27T12:42:00;2.63;;;1.57;;
75261;SDS011;63859;51.064;4.580;2023-02-27T12:44:57;4.27;;;1.80;;
75261;SDS011;63859;51.064;4.580;2023-02-27T12:55:46;8.10;;;1.83;;
75261;SDS011;63859;51.064;4.580;2023-02-27T13:00:57;4.67;;;1.60;;
75261;SDS011;63859;51.064;4.580;2023-02-27T13:09:34;8.70;;;1.87;;
75261;SDS011;63859;51.064;4.580;2023-02-27T13:14:46;2.03;;;1.40;;
75261;SDS011;63859;51.064;4.580;2023-02-27T13:17:25;2.43;;;1.40;;
75261;SDS011;63859;51.064;4.580;2023-02-27T13:20:10;4.77;;;1.70;;
75261;SDS011;63859;51.064;4.580;2023-02-27T13:25:38;5.50;;;1.80;;
75261;SDS011;63859;51.064;4.580;2023-02-27T13:28:07;3.33;;;1.53;;
75261;SDS011;63859;51.064;4.580;2023-02-27T13:30:41;2.60;;;1.50;;
75261;SDS011;63859;51.064;4.580;2023-02-27T13:33:33;3.17;;;1.77;;
75261;SDS011;63859;51.064;4.580;2023-02-27T13:36:21;2.87;;;1.70;;
75261;SDS011;63859;51.064;4.580;2023-02-27T13:38:52;2.47;;;1.60;;
75261;SDS011;63859;51.064;4.580;2023-02-27T13:43:49;6.17;;;1.77;;
75261;SDS011;63859;51.064;4.580;2023-02-27T13:48:50;5.50;;;1.70;;
75261;SDS011;63859;51.064;4.580;2023-02-27T14:02:49;2.73;;;1.50;;
75261;SDS011;63859;51.064;4.580;2023-02-27T14:04:56;4.03;;;1.90;;
75261;SDS011;63859;51.064;4.580;2023-02-27T14:07:24;5.73;;;2.13;;
75261;SDS011;63859;51.064;4.580;2023-02-27T14:09:58;6.87;;;2.00;;
75261;SDS011;63859;51.064;4.580;2023-02-27T14:12:36;7.10;;;1.80;;
75261;SDS011;63859;51.064;4.580;2023-02-27T14:17:41;2.00;;;1.40;;
75261;SDS011;63859;51.064;4.580;2023-02-27T14:20:13;3.27;;;1.63;;
75261;SDS011;63859;51.064;4.580;2023-02-27T14:25:42;5.57;;;1.60;;
75261;SDS011;63859;51.064;4.580;2023-02-27T14:31:21;3.17;;;1.70;;
75261;SDS011;63859;51.064;4.580;2023-02-27T14:33:59;4.77;;;1.87;;
75261;SDS011;63859;51.064;4.580;2023-02-27T14:36:31;3.07;;;1.80;;
75261;SDS011;63859;51.064;4.580;2023-02-27T14:39:00;8.00;;;2.00;;
75261;SDS011;63859;51.064;4.580;2023-02-27T14:41:45;6.00;;;2.00;;
75261;SDS011;63859;51.064;4.580;2023-02-27T14:44:24;10.00;;;2.00;;
75261;SDS011;63859;51.064;4.580;2023-02-27T14:46:52;11.23;;;1.83;;
75261;SDS011;63859;51.064;4.580;2023-02-27T14:49:21;4.00;;;1.70;;
75261;SDS011;63859;51.064;4.580;2023-02-27T14:51:49;7.17;;;2.77;;
75261;SDS011;63859;51.064;4.580;2023-02-27T14:54:17;5.53;;;1.70;;
75261;SDS011;63859;51.064;4.580;2023-02-27T14:57:02;4.17;;;2.03;;
75261;SDS011;63859;51.064;4.580;2023-02-27T14:59:31;4.93;;;1.97;;
75261;SDS011;63859;51.064;4.580;2023-02-27T15:02:13;4.80;;;2.03;;
75261;SDS011;63859;51.064;4.580;2023-02-27T15:05:09;10.53;;;2.40;;
75261;SDS011;63859;51.064;4.580;2023-02-27T15:07:39;9.07;;;2.10;;
75261;SDS011;63859;51.064;4.580;2023-02-27T15:10:08;5.50;;;2.10;;
75261;SDS011;63859;51.064;4.580;2023-02-27T15:12:41;4.40;;;2.10;;
75261;SDS011;63859;51.064;4.580;2023-02-27T15:15:07;11.43;;;2.60;;
75261;SDS011;63859;51.064;4.580;2023-02-27T15:17:40;12.30;;;2.70;;
75261;SDS011;63859;51.064;4.580;2023-02-27T15:20:41;14.17;;;2.50;;
75261;SDS011;63859;51.064;4.580;2023-02-27T15:23:01;6.10;;;1.90;;
75261;SDS011;63859;51.064;4.580;2023-02-27T15:25:53;2.43;;;1.97;;
75261;SDS011;63859;51.064;4.580;2023-02-27T15:28:29;3.67;;;2.00;;
75261;SDS011;63859;51.064;4.580;2023-02-27T15:31:01;3.57;;;2.10;;
75261;SDS011;63859;51.064;4.580;2023-02-27T15:33:27;4.07;;;2.10;;
75261;SDS011;63859;51.064;4.580;2023-02-27T15:35:55;8.17;;;2.27;;
75261;SDS011;63859;51.064;4.580;2023-02-27T15:38:27;9.63;;;2.27;;
75261;SDS011;63859;51.064;4.580;2023-02-27T15:40:55;10.60;;;1.93;;
75261;SDS011;63859;51.064;4.580;2023-02-27T15:43:21;3.37;;;2.00;;
75261;SDS011;63859;51.064;4.580;2023-02-27T15:45:48;3.87;;;2.23;;
75261;SDS011;63859;51.064;4.580;2023-02-27T15:48:15;4.80;;;2.00;;
75261;SDS011;63859;51.064;4.580;2023-02-27T15:50:44;4.17;;;1.87;;
75261;SDS011;63859;51.064;4.580;2023-02-27T15:53:16;4.47;;;2.10;;
75261;SDS011;63859;51.064;4.580;2023-02-27T15:55:57;10.07;;;2.10;;
75261;SDS011;63859;51.064;4.580;2023-02-27T15:58:26;2.43;;;1.80;;
75261;SDS011;63859;51.064;4.580;2023-02-27T16:00:58;6.60;;;1.90;;
75261;SDS011;63859;51.064;4.580;2023-02-27T16:03:57;6.47;;;2.00;;
75261;SDS011;63859;51.064;4.580;2023-02-27T16:06:30;3.73;;;1.60;;
75261;SDS011;63859;51.064;4.580;2023-02-27T16:08:59;8.23;;;2.67;;
75261;SDS011;63859;51.064;4.580;2023-02-27T16:11:30;4.17;;;2.00;;
75261;SDS011;63859;51.064;4.580;2023-02-27T16:13:57;3.90;;;2.10;;
75261;SDS011;63859;51.064;4.580;2023-02-27T16:16:27;6.63;;;2.70;;
75261;SDS011;63859;51.064;4.580;2023-02-27T16:19:01;5.10;;;2.10;;
75261;SDS011;63859;51.064;4.580;2023-02-27T16:22:01;5.23;;;1.77;;
75261;SDS011;63859;51.064;4.580;2023-02-27T16:24:30;5.67;;;1.87;;
75261;SDS011;63859;51.064;4.580;2023-02-27T16:26:56;3.43;;;1.73;;
75261;SDS011;63859;51.064;4.580;2023-02-27T16:29:23;3.20;;;2.07;;
75261;SDS011;63859;51.064;4.580;2023-02-27T16:32:03;8.10;;;1.97;;
75261;SDS011;63859;51.064;4.580;2023-02-27T16:37:19;6.50;;;2.50;;
75261;SDS011;63859;51.064;4.580;2023-02-27T16:39:47;4.70;;;2.17;;
75261;SDS011;63859;51.064;4.580;2023-02-27T16:42:18;2.23;;;1.90;;
75261;SDS011;63859;51.064;4.580;2023-02-27T16:44:44;10.30;;;2.30;;
75261;SDS011;63859;51.064;4.580;2023-02-27T16:47:10;2.10;;;1.90;;
75261;SDS011;63859;51.064;4.580;2023-02-27T16:49:35;2.33;;;1.80;;
75261;SDS011;63859;51.064;4.580;2023-02-27T16:52:02;3.27;;;2.10;;
75261;SDS011;63859;51.064;4.580;2023-02-27T16:54:29;6.67;;;2.13;;
75261;SDS011;63859;51.064;4.580;2023-02-27T16:56:55;3.33;;;1.80;;
75261;SDS011;63859;51.064;4.580;2023-02-27T17:01:57;2.63;;;2.10;;
75261;SDS011;63859;51.064;4.580;2023-02-27T17:04:25;6.33;;;2.40;;
75261;SDS011;63859;51.064;4.580;2023-02-27T17:06:52;4.97;;;2.10;;
75261;SDS011;63859;51.064;4.580;2023-02-27T17:09:19;4.23;;;2.30;;
75261;SDS011;63859;51.064;4.580;2023-02-27T17:11:45;5.77;;;3.27;;
75261;SDS011;63859;51.064;4.580;2023-02-27T17:14:11;6.90;;;3.33;;
75261;SDS011;63859;51.064;4.580;2023-02-27T17:16:36;8.37;;;2.50;;
75261;SDS011;63859;51.064;4.580;2023-02-27T17:19:02;4.00;;;2.00;;
75261;SDS011;63859;51.064;4.580;2023-02-27T17:21:28;11.13;;;2.97;;
75261;SDS011;63859;51.064;4.580;2023-02-27T17:23:54;3.03;;;1.90;;
75261;SDS011;63859;51.064;4.580;2023-02-27T17:26:19;2.93;;;2.30;;
75261;SDS011;63859;51.064;4.580;2023-02-27T17:28:45;5.47;;;2.00;;
75261;SDS011;63859;51.064;4.580;2023-02-27T17:31:11;3.37;;;1.87;;
75261;SDS011;63859;51.064;4.580;2023-02-27T17:33:39;3.30;;;2.30;;
75261;SDS011;63859;51.064;4.580;2023-02-27T17:36:07;4.57;;;2.57;;
75261;SDS011;63859;51.064;4.580;2023-02-27T17:38:34;4.27;;;2.23;;
75261;SDS011;63859;51.064;4.580;2023-02-27T17:41:08;4.13;;;2.43;;
75261;SDS011;63859;51.064;4.580;2023-02-27T17:43:34;6.87;;;2.50;;
75261;SDS011;63859;51.064;4.580;2023-02-27T17:46:03;6.80;;;2.57;;
75261;SDS011;63859;51.064;4.580;2023-02-27T17:48:33;6.97;;;2.40;;
75261;SDS011;63859;51.064;4.580;2023-02-27T17:51:03;5.93;;;2.40;;
75261;SDS011;63859;51.064;4.580;2023-02-27T17:53:31;4.27;;;2.80;;
75261;SDS011;63859;51.064;4.580;2023-02-27T17:55:57;3.70;;;2.20;;
75261;SDS011;63859;51.064;4.580;2023-02-27T17:58:23;7.37;;;2.50;;
75261;SDS011;63859;51.064;4.580;2023-02-27T18:00:48;4.97;;;2.33;;
75261;SDS011;63859;51.064;4.580;2023-02-27T18:03:14;4.03;;;2.10;;